createdAt,value
2023-05-05T00:01:09.264Z,17.18
2023-05-05T00:03:36.204Z,17.09
2023-05-05T00:06:03.481Z,17.12
2023-05-05T00:08:30.101Z,17.04
2023-05-05T00:10:57.766Z,17.03
2023-05-05T00:13:24.398Z,17.01
2023-05-05T00:15:53.552Z,16.98
2023-05-05T00:18:20.516Z,17.01
2023-05-05T00:20:47.625Z,16.86
2023-05-05T00:23:15.279Z,16.85
2023-05-05T00:25:42.057Z,16.78
2023-05-05T00:28:09.019Z,16.81
2023-05-05T00:30:37.182Z,16.75
2023-05-05T00:33:04.280Z,16.70
2023-05-05T00:35:30.991Z,16.57
2023-05-05T00:37:58.072Z,16.66
2023-05-05T00:40:25.299Z,16.64
2023-05-05T00:42:52.076Z,16.56
2023-05-05T00:45:20.086Z,16.54
2023-05-05T00:47:48.830Z,16.58
2023-05-05T00:50:25.699Z,16.57
2023-05-05T00:53:00.273Z,16.55
2023-05-05T00:55:28.611Z,16.44
2023-05-05T00:57:56.950Z,16.43
2023-05-05T01:00:23.886Z,16.34
2023-05-05T01:02:51.875Z,16.34
2023-05-05T01:05:19.978Z,16.33
2023-05-05T01:08:16.090Z,16.27
2023-05-05T01:10:48.142Z,16.07
2023-05-05T01:13:32.140Z,16.02
2023-05-05T01:16:27.314Z,15.98
2023-05-05T01:19:19.016Z,16.08
2023-05-05T01:21:49.998Z,15.70
2023-05-05T01:24:34.912Z,15.85
2023-05-05T01:27:38.795Z,15.84
2023-05-05T01:30:17.460Z,15.83
2023-05-05T01:33:08.287Z,15.80
2023-05-05T01:35:58.536Z,15.90
2023-05-05T01:38:46.660Z,15.79
2023-05-05T01:41:47.095Z,15.78
2023-05-05T01:44:36.827Z,15.87
2023-05-05T01:47:24.783Z,15.82
2023-05-05T01:49:52.608Z,15.72
2023-05-05T01:52:20.480Z,15.68
2023-05-05T01:54:49.785Z,15.57
2023-05-05T01:57:17.518Z,15.49
2023-05-05T01:59:43.998Z,15.50
2023-05-05T02:02:12.006Z,15.44
2023-05-05T02:04:43.447Z,15.38
2023-05-05T02:07:12.776Z,15.33
2023-05-05T02:09:40.641Z,15.31
2023-05-05T02:12:08.578Z,15.25
2023-05-05T02:14:36.875Z,15.24
2023-05-05T02:17:03.909Z,15.19
2023-05-05T02:19:39.587Z,15.19
2023-05-05T02:22:06.597Z,15.06
2023-05-05T02:24:33.643Z,15.06
2023-05-05T02:27:03.692Z,14.93
2023-05-05T02:29:35.659Z,14.89
2023-05-05T02:32:06.914Z,15.00
2023-05-05T02:34:39.763Z,14.98
2023-05-05T02:37:12.444Z,14.92
2023-05-05T02:39:45.126Z,14.87
2023-05-05T02:42:19.837Z,14.83
2023-05-05T02:44:51.867Z,14.84
2023-05-05T02:47:20.909Z,14.84
2023-05-05T02:49:48.848Z,14.83
2023-05-05T02:52:15.424Z,14.82
2023-05-05T02:54:43.663Z,14.72
2023-05-05T02:57:19.465Z,14.52
2023-05-05T03:00:05.610Z,14.58
2023-05-05T03:02:52.204Z,14.63
2023-05-05T03:05:22.601Z,14.56
2023-05-05T03:08:00.437Z,14.58
2023-05-05T03:10:31.169Z,14.66
2023-05-05T03:13:02.901Z,14.68
2023-05-05T03:15:52.127Z,14.65
2023-05-05T03:18:24.391Z,14.69
2023-05-05T03:20:58.286Z,14.50
2023-05-05T03:23:24.824Z,14.56
2023-05-05T03:25:56.809Z,14.55
2023-05-05T03:28:30.979Z,14.50
2023-05-05T03:31:01.108Z,14.48
2023-05-05T03:33:27.917Z,14.47
2023-05-05T03:35:57.463Z,14.45
2023-05-05T03:38:23.968Z,14.32
2023-05-05T03:40:50.893Z,14.38
2023-05-05T03:43:20.544Z,14.10
2023-05-05T03:45:47.462Z,14.23
2023-05-05T03:48:13.994Z,14.00
2023-05-05T03:50:45.041Z,14.15
2023-05-05T03:53:12.653Z,14.25
2023-05-05T03:55:39.507Z,14.20
2023-05-05T03:58:06.631Z,14.24
2023-05-05T04:00:33.193Z,14.24
2023-05-05T04:02:59.978Z,14.23
2023-05-05T04:05:26.886Z,14.17
2023-05-05T04:07:53.858Z,14.15
2023-05-05T04:10:21.379Z,14.11
2023-05-05T04:12:48.281Z,14.16
2023-05-05T04:15:14.862Z,13.94
2023-05-05T04:17:41.714Z,14.04
2023-05-05T04:20:09.531Z,14.10
2023-05-05T04:22:36.982Z,14.03
2023-05-05T04:25:04.605Z,13.96
2023-05-05T04:27:31.533Z,13.96
2023-05-05T04:29:59.365Z,14.05
2023-05-05T04:32:26.170Z,14.10
2023-05-05T04:34:53.447Z,14.08
2023-05-05T04:37:21.717Z,14.12
2023-05-05T04:39:48.433Z,14.10
2023-05-05T04:42:15.080Z,14.17
2023-05-05T04:44:41.734Z,14.15
2023-05-05T04:47:08.683Z,14.18
2023-05-05T04:49:35.869Z,14.15
2023-05-05T04:52:02.566Z,14.18
2023-05-05T04:54:29.321Z,14.16
2023-05-05T04:56:55.829Z,14.20
2023-05-05T04:59:22.399Z,14.27
2023-05-05T05:01:49.056Z,14.29
2023-05-05T05:04:18.575Z,14.28
2023-05-05T05:06:45.977Z,14.32
2023-05-05T05:09:13.208Z,14.37
2023-05-05T05:11:39.854Z,14.29
2023-05-05T05:14:06.908Z,14.29
2023-05-05T05:16:33.592Z,14.35
2023-05-05T05:19:01.606Z,14.43
2023-05-05T05:21:31.565Z,14.57
2023-05-05T05:23:58.929Z,14.70
2023-05-05T05:26:26.973Z,14.77
2023-05-05T05:28:53.522Z,14.86
2023-05-05T05:31:20.445Z,14.92
2023-05-05T05:33:47.148Z,15.06
2023-05-05T05:36:14.779Z,15.20
2023-05-05T05:38:41.746Z,15.27
2023-05-05T05:41:08.899Z,15.36
2023-05-05T05:43:37.309Z,15.44
2023-05-05T05:46:06.890Z,15.47
2023-05-05T05:48:34.988Z,15.50
2023-05-05T05:51:02.533Z,15.57
2023-05-05T05:53:29.731Z,15.65
2023-05-05T05:55:56.466Z,15.71
2023-05-05T05:58:23.676Z,15.86
2023-05-05T06:00:50.311Z,15.93
2023-05-05T06:03:17.206Z,16.06
2023-05-05T06:05:45.811Z,16.18
2023-05-05T06:08:13.826Z,16.23
2023-05-05T06:10:45.407Z,16.25
2023-05-05T06:13:15.742Z,16.38
2023-05-05T06:15:46.318Z,16.41
2023-05-05T06:18:14.064Z,16.56
2023-05-05T06:20:41.083Z,16.60
2023-05-05T06:23:07.700Z,16.67
2023-05-05T06:25:37.701Z,16.74
2023-05-05T06:28:05.466Z,16.82
2023-05-05T06:30:32.842Z,16.95
2023-05-05T06:32:59.711Z,17.10
2023-05-05T06:35:26.385Z,17.20
2023-05-05T06:37:53.087Z,17.22
2023-05-05T06:40:19.552Z,17.48
2023-05-05T06:42:46.255Z,17.46
2023-05-05T06:45:17.610Z,17.45
2023-05-05T06:47:44.603Z,17.63
2023-05-05T06:50:11.547Z,17.67
2023-05-05T06:52:38.231Z,17.80
2023-05-05T06:55:04.978Z,17.77
2023-05-05T06:57:31.569Z,17.82
2023-05-05T06:59:58.110Z,17.85
2023-05-05T07:02:26.708Z,17.98
2023-05-05T07:04:55.440Z,18.15
2023-05-05T07:07:22.339Z,18.20
2023-05-05T07:09:49.064Z,18.30
2023-05-05T07:12:15.495Z,18.18
2023-05-05T07:14:42.275Z,18.19
2023-05-05T07:17:08.812Z,18.15
2023-05-05T07:19:35.496Z,18.30
2023-05-05T07:22:02.057Z,18.34
2023-05-05T07:24:28.572Z,18.50
2023-05-05T07:26:55.748Z,18.44
2023-05-05T07:29:22.189Z,18.68
2023-05-05T07:31:49.032Z,18.62
2023-05-05T07:34:15.590Z,18.94
2023-05-05T07:36:42.207Z,18.99
2023-05-05T07:39:08.700Z,18.95
2023-05-05T07:41:35.461Z,19.15
2023-05-05T07:44:02.023Z,19.15
2023-05-05T07:46:28.830Z,19.26
2023-05-05T07:48:55.480Z,19.44
2023-05-05T07:51:22.280Z,19.41
2023-05-05T07:53:48.887Z,19.65
2023-05-05T07:56:15.733Z,19.83
2023-05-05T07:58:42.210Z,19.92
2023-05-05T08:01:11.044Z,19.99
2023-05-05T08:03:37.807Z,20.11
2023-05-05T08:06:10.580Z,19.96
2023-05-05T08:08:37.734Z,20.03
2023-05-05T08:11:04.288Z,20.20
2023-05-05T08:13:31.120Z,20.12
2023-05-05T08:15:57.761Z,20.44
2023-05-05T08:18:24.700Z,20.23
2023-05-05T08:20:51.973Z,20.55
2023-05-05T08:23:18.697Z,20.60
2023-05-05T08:25:45.278Z,20.83
2023-05-05T08:28:11.720Z,21.05
2023-05-05T08:30:38.780Z,21.27
2023-05-05T08:33:05.585Z,21.67
2023-05-05T08:35:32.265Z,21.07
2023-05-05T08:37:59.236Z,21.31
2023-05-05T08:40:31.923Z,21.45
2023-05-05T08:42:59.055Z,21.61
2023-05-05T08:45:27.863Z,21.66
2023-05-05T08:48:00.473Z,21.62
2023-05-05T08:50:29.220Z,22.04
2023-05-05T08:53:12.865Z,21.89
2023-05-05T08:55:52.368Z,21.94
2023-05-05T08:58:19.502Z,22.20
2023-05-05T09:00:46.637Z,21.54
2023-05-05T09:03:13.390Z,21.89
2023-05-05T09:05:42.244Z,22.07
2023-05-05T09:08:10.963Z,22.57
2023-05-05T09:10:41.019Z,22.60
2023-05-05T09:13:07.528Z,22.57
2023-05-05T09:15:34.673Z,22.66
2023-05-05T09:18:01.804Z,22.84
2023-05-05T09:20:36.588Z,23.04
2023-05-05T09:23:11.472Z,22.96
2023-05-05T09:25:38.605Z,23.35
2023-05-05T09:28:16.388Z,22.71
2023-05-05T09:30:44.874Z,22.94
2023-05-05T09:33:12.473Z,23.98
2023-05-05T09:35:53.663Z,24.49
2023-05-05T09:38:21.416Z,24.60
2023-05-05T09:40:49.944Z,23.99
2023-05-05T09:43:18.054Z,23.85
2023-05-05T09:45:44.961Z,24.53
2023-05-05T09:48:28.692Z,25.11
2023-05-05T09:50:56.921Z,24.93
2023-05-05T09:53:25.447Z,24.48
2023-05-05T09:55:56.271Z,24.26
2023-05-05T09:58:25.930Z,24.66
2023-05-05T10:00:53.613Z,25.07
2023-05-05T10:03:20.798Z,25.21
2023-05-05T10:05:55.753Z,25.35
2023-05-05T10:08:25.304Z,24.47
2023-05-05T10:10:54.144Z,24.92
2023-05-05T10:13:23.223Z,25.05
2023-05-05T10:15:51.835Z,25.27
2023-05-05T10:18:22.522Z,26.16
2023-05-05T10:21:02.286Z,25.74
2023-05-05T10:23:37.983Z,26.39
2023-05-05T10:26:11.697Z,25.84
2023-05-05T10:28:44.831Z,26.67
2023-05-05T10:31:25.633Z,27.08
2023-05-05T10:34:15.397Z,26.40
2023-05-05T10:36:42.937Z,26.56
2023-05-05T10:39:10.804Z,26.70
2023-05-05T10:41:37.989Z,27.40
2023-05-05T10:44:05.810Z,26.15
2023-05-05T10:46:32.680Z,26.20
2023-05-05T10:49:24.415Z,26.63
2023-05-05T10:52:21.617Z,26.28
2023-05-05T10:55:13.715Z,26.81
2023-05-05T10:57:42.685Z,26.24
2023-05-05T11:00:10.254Z,26.01
2023-05-05T11:02:37.549Z,25.68
2023-05-05T11:05:23.090Z,25.40
2023-05-05T11:07:52.969Z,25.25
2023-05-05T11:10:21.123Z,25.24
2023-05-05T11:12:54.106Z,24.97
2023-05-05T11:15:23.720Z,25.36
2023-05-05T11:17:50.677Z,25.25
2023-05-05T11:20:17.718Z,25.50
2023-05-05T11:23:21.469Z,25.53
2023-05-05T11:25:48.236Z,25.82
2023-05-05T11:28:17.040Z,26.17
2023-05-05T11:30:56.402Z,25.09
2023-05-05T11:33:30.683Z,25.39
2023-05-05T11:36:08.609Z,25.98
2023-05-05T11:38:55.584Z,26.03
2023-05-05T11:41:34.356Z,26.08
2023-05-05T11:44:17.496Z,27.02
2023-05-05T11:46:56.007Z,26.50
2023-05-05T11:49:33.972Z,26.11
2023-05-05T11:52:07.979Z,26.52
2023-05-05T11:54:35.906Z,26.13
2023-05-05T11:57:07.444Z,26.74
2023-05-05T11:59:37.412Z,25.72
2023-05-05T12:02:04.591Z,27.31
2023-05-05T12:04:31.785Z,27.37
2023-05-05T12:06:59.866Z,27.23
2023-05-05T12:09:27.204Z,27.29
2023-05-05T12:11:56.026Z,27.82
2023-05-05T12:14:23.890Z,28.67
2023-05-05T12:17:09.108Z,29.20
2023-05-05T12:19:36.148Z,28.47
2023-05-05T12:22:04.304Z,27.47
2023-05-05T12:24:30.963Z,28.17
2023-05-05T12:27:11.700Z,28.29
2023-05-05T12:29:38.220Z,27.74
2023-05-05T12:32:05.276Z,28.06
2023-05-05T12:34:32.284Z,27.44
2023-05-05T12:36:58.993Z,26.60
2023-05-05T12:39:36.342Z,26.04
2023-05-05T12:42:04.416Z,26.48
2023-05-05T12:44:38.234Z,26.17
2023-05-05T12:47:05.353Z,26.39
2023-05-05T12:49:34.905Z,26.75
2023-05-05T12:52:01.507Z,26.85
2023-05-05T12:54:29.680Z,26.86
2023-05-05T12:56:59.757Z,26.19
2023-05-05T12:59:27.452Z,26.78
2023-05-05T13:02:01.561Z,26.95
2023-05-05T13:04:28.935Z,25.94
2023-05-05T13:07:10.654Z,26.80
2023-05-05T13:09:37.399Z,27.60
2023-05-05T13:12:04.687Z,27.98
2023-05-05T13:14:31.850Z,28.09
2023-05-05T13:16:58.792Z,27.91
2023-05-05T13:19:25.362Z,27.36
2023-05-05T13:21:56.607Z,26.39
2023-05-05T13:24:38.051Z,27.20
2023-05-05T13:27:10.035Z,26.94
2023-05-05T13:29:42.090Z,26.46
2023-05-05T13:32:08.630Z,26.82
2023-05-05T13:34:35.360Z,26.77
2023-05-05T13:37:02.042Z,28.05
2023-05-05T13:39:30.965Z,28.39
2023-05-05T13:41:57.530Z,26.77
2023-05-05T13:44:24.298Z,25.89
2023-05-05T13:46:52.898Z,26.02
2023-05-05T13:49:20.126Z,26.20
2023-05-05T13:51:48.632Z,25.72
2023-05-05T13:54:15.313Z,26.16
2023-05-05T13:56:41.966Z,24.82
2023-05-05T13:59:09.212Z,25.00
2023-05-05T14:01:35.916Z,25.48
2023-05-05T14:04:05.099Z,25.58
2023-05-05T14:06:32.728Z,25.24
2023-05-05T14:08:59.683Z,25.67
2023-05-05T14:11:26.157Z,25.45
2023-05-05T14:13:52.708Z,25.76
2023-05-05T14:16:19.246Z,26.00
2023-05-05T14:18:45.748Z,24.72
2023-05-05T14:21:12.504Z,24.94
2023-05-05T14:23:39.226Z,25.08
2023-05-05T14:26:05.933Z,25.23
2023-05-05T14:28:32.502Z,25.46
2023-05-05T14:30:59.073Z,26.36
2023-05-05T14:33:25.909Z,26.24
2023-05-05T14:35:52.651Z,25.35
2023-05-05T14:38:19.237Z,25.16
2023-05-05T14:40:45.977Z,25.13
2023-05-05T14:43:12.490Z,25.78
2023-05-05T14:45:39.347Z,26.05
2023-05-05T14:48:05.974Z,26.13
2023-05-05T14:50:32.402Z,25.36
2023-05-05T14:52:59.125Z,24.67
2023-05-05T14:55:26.207Z,24.43
2023-05-05T14:57:52.810Z,24.89
2023-05-05T15:00:22.473Z,24.59
2023-05-05T15:02:49.188Z,24.70
2023-05-05T15:05:16.002Z,24.37
2023-05-05T15:07:42.743Z,24.15
2023-05-05T15:10:09.677Z,24.49
2023-05-05T15:12:36.349Z,24.44
2023-05-05T15:15:03.436Z,24.62
2023-05-05T15:17:30.828Z,24.36
2023-05-05T15:19:57.515Z,24.17
2023-05-05T15:22:24.105Z,23.96
2023-05-05T15:24:50.532Z,23.89
2023-05-05T15:27:18.263Z,23.99
2023-05-05T15:29:44.981Z,23.64
2023-05-05T15:32:11.606Z,23.31
2023-05-05T15:34:38.127Z,22.92
2023-05-05T15:37:04.810Z,21.97
2023-05-05T15:39:31.360Z,21.32
2023-05-05T15:41:59.630Z,21.72
2023-05-05T15:44:26.456Z,20.72
2023-05-05T15:46:52.951Z,20.60
2023-05-05T15:49:19.514Z,20.60
2023-05-05T15:51:47.492Z,20.65
2023-05-05T15:54:14.688Z,21.01
2023-05-05T15:56:41.243Z,21.13
2023-05-05T15:59:08.009Z,21.39
2023-05-05T16:01:36.174Z,20.77
2023-05-05T16:04:03.660Z,20.25
2023-05-05T16:06:30.416Z,21.05
2023-05-05T16:08:58.562Z,20.91
2023-05-05T16:11:28.457Z,21.16
2023-05-05T16:13:55.203Z,20.70
2023-05-05T16:16:21.820Z,20.98
2023-05-05T16:18:48.705Z,20.85
2023-05-05T16:21:15.371Z,20.53
2023-05-05T16:23:41.980Z,20.57
2023-05-05T16:26:08.498Z,20.91
2023-05-05T16:28:35.014Z,20.34
2023-05-05T16:31:02.290Z,20.25
2023-05-05T16:33:29.325Z,20.52
2023-05-05T16:35:55.977Z,20.29
2023-05-05T16:38:22.894Z,20.49
2023-05-05T16:40:49.629Z,19.36
2023-05-05T16:43:16.191Z,19.67
2023-05-05T16:45:43.609Z,20.15
2023-05-05T16:48:10.497Z,20.10
2023-05-05T16:50:37.079Z,19.86
2023-05-05T16:53:03.641Z,19.94
2023-05-05T16:55:30.206Z,19.79
2023-05-05T16:57:56.905Z,20.02
2023-05-05T17:00:23.627Z,20.01
2023-05-05T17:02:50.170Z,20.06
2023-05-05T17:05:17.762Z,20.05
2023-05-05T17:07:44.534Z,19.71
2023-05-05T17:10:11.243Z,19.78
2023-05-05T17:12:37.785Z,19.96
2023-05-05T17:15:04.940Z,19.88
2023-05-05T17:17:31.744Z,19.95
2023-05-05T17:19:58.276Z,19.81
2023-05-05T17:22:25.105Z,19.81
2023-05-05T17:24:51.837Z,19.86
2023-05-05T17:27:18.467Z,19.75
2023-05-05T17:29:45.223Z,19.79
2023-05-05T17:32:11.887Z,19.81
2023-05-05T17:34:38.648Z,19.84
2023-05-05T17:37:06.500Z,19.81
2023-05-05T17:39:33.095Z,19.87
2023-05-05T17:41:59.591Z,19.77
2023-05-05T17:44:26.040Z,19.62
2023-05-05T17:46:52.670Z,19.59
2023-05-05T17:49:19.281Z,19.61
2023-05-05T17:51:45.883Z,19.57
2023-05-05T17:54:12.449Z,19.55
2023-05-05T17:56:38.985Z,19.54
2023-05-05T17:59:05.482Z,19.54
2023-05-05T18:01:32.055Z,19.52
2023-05-05T18:03:58.674Z,19.35
2023-05-05T18:06:25.737Z,19.29
2023-05-05T18:08:52.870Z,19.35
2023-05-05T18:11:21.315Z,19.30
2023-05-05T18:16:43.736Z,19.18
2023-05-05T18:19:10.333Z,19.13
2023-05-05T18:21:36.802Z,19.07
2023-05-05T18:24:18.220Z,19.08
2023-05-05T18:26:53.002Z,18.97
2023-05-05T18:29:23.909Z,19.04
2023-05-05T18:31:52.845Z,18.87
2023-05-05T18:34:20.646Z,18.85
2023-05-05T18:36:48.008Z,18.84
2023-05-05T18:39:14.876Z,18.83
2023-05-05T18:41:41.410Z,18.78
2023-05-05T18:44:08.211Z,18.79
2023-05-05T18:46:34.822Z,18.73
2023-05-05T18:49:01.724Z,18.64
2023-05-05T18:51:28.525Z,18.63
2023-05-05T18:53:55.159Z,18.62
2023-05-05T18:56:21.713Z,18.56
2023-05-05T18:58:48.616Z,18.49
2023-05-05T19:01:16.045Z,18.49
2023-05-05T19:03:46.273Z,18.48
2023-05-05T19:06:12.909Z,18.46
2023-05-05T19:08:39.489Z,18.53
2023-05-05T19:11:06.326Z,18.34
2023-05-05T19:13:32.743Z,18.32
2023-05-05T19:15:59.425Z,18.39
2023-05-05T19:18:26.738Z,18.39
2023-05-05T19:20:53.174Z,18.21
2023-05-05T19:23:19.595Z,17.74
2023-05-05T19:25:46.437Z,17.88
2023-05-05T19:28:12.905Z,17.59
2023-05-05T19:30:39.332Z,17.85
2023-05-05T19:33:06.043Z,17.73
2023-05-05T19:35:32.582Z,17.78
2023-05-05T19:38:02.090Z,17.66
2023-05-05T19:40:34.380Z,17.58
2023-05-05T19:43:03.339Z,17.60
2023-05-05T19:45:33.742Z,17.68
2023-05-05T19:48:01.404Z,17.69
2023-05-05T19:50:30.208Z,17.66
2023-05-05T19:52:57.186Z,17.69
2023-05-05T19:55:24.363Z,17.55
2023-05-05T19:57:50.855Z,17.58
2023-05-05T20:00:18.322Z,17.62
2023-05-05T20:02:45.231Z,17.55
2023-05-05T20:05:13.979Z,17.53
2023-05-05T20:07:41.914Z,17.59
2023-05-05T20:10:09.549Z,17.43
2023-05-05T20:12:36.328Z,17.47
2023-05-05T20:15:03.179Z,17.53
2023-05-05T20:17:29.663Z,17.26
2023-05-05T20:19:57.569Z,17.28
2023-05-05T20:22:26.542Z,17.27
2023-05-05T20:24:53.517Z,17.28
2023-05-05T20:27:21.002Z,17.31
2023-05-05T20:29:48.111Z,17.38
2023-05-05T20:32:15.699Z,17.21
2023-05-05T20:34:42.208Z,17.07
2023-05-05T20:37:09.161Z,17.08
2023-05-05T20:39:36.542Z,17.11
2023-05-05T20:42:03.205Z,17.07
2023-05-05T20:44:29.903Z,17.12
2023-05-05T20:46:56.401Z,17.20
2023-05-05T20:49:22.880Z,17.13
2023-05-05T20:51:49.533Z,16.96
2023-05-05T20:54:16.019Z,17.02
2023-05-05T20:56:42.644Z,17.02
2023-05-05T20:59:09.527Z,16.78
2023-05-05T21:01:36.129Z,16.89
2023-05-05T21:04:02.769Z,16.64
2023-05-05T21:06:29.415Z,16.65
2023-05-05T21:08:56.215Z,16.72
2023-05-05T21:11:22.688Z,16.53
2023-05-05T21:13:49.180Z,16.72
2023-05-05T21:16:16.118Z,16.53
2023-05-05T21:18:46.516Z,16.60
2023-05-05T21:21:13.250Z,16.53
2023-05-05T21:23:39.818Z,16.41
2023-05-05T21:26:06.371Z,16.55
2023-05-05T21:28:32.849Z,16.49
2023-05-05T21:31:20.336Z,16.44
2023-05-05T21:33:46.308Z,16.39
2023-05-05T21:36:15.130Z,16.17
2023-05-05T21:38:41.712Z,16.29
2023-05-05T21:41:08.349Z,16.21
2023-05-05T21:43:35.015Z,16.19
2023-05-05T21:46:02.831Z,16.13
2023-05-05T21:48:30.993Z,16.12
2023-05-05T21:50:57.646Z,16.10
2023-05-05T21:53:24.136Z,16.04
2023-05-05T21:55:50.932Z,16.00
2023-05-05T21:58:17.423Z,15.89
2023-05-05T22:00:44.906Z,15.82
2023-05-05T22:03:11.511Z,15.87
2023-05-05T22:05:38.241Z,15.96
2023-05-05T22:08:04.700Z,15.97
2023-05-05T22:10:31.244Z,15.82
2023-05-05T22:13:00.594Z,15.76
2023-05-05T22:15:32.618Z,15.91
2023-05-05T22:18:02.637Z,15.75
2023-05-05T22:20:29.632Z,15.70
2023-05-05T22:22:56.501Z,15.72
2023-05-05T22:25:23.268Z,15.76
2023-05-05T22:27:49.801Z,15.75
2023-05-05T22:30:16.193Z,15.70
2023-05-05T22:32:43.478Z,15.66
2023-05-05T22:35:10.358Z,15.56
2023-05-05T22:37:37.217Z,15.67
2023-05-05T22:40:04.168Z,15.56
2023-05-05T22:42:30.974Z,15.56
2023-05-05T22:44:57.591Z,15.53
2023-05-05T22:47:24.045Z,15.53
2023-05-05T22:49:50.972Z,15.51
2023-05-05T22:52:17.888Z,15.52
2023-05-05T22:54:44.386Z,15.53
2023-05-05T22:57:10.916Z,15.41
2023-05-05T22:59:37.549Z,15.31
2023-05-05T23:02:04.238Z,15.42
2023-05-05T23:04:30.747Z,15.44
2023-05-05T23:06:57.603Z,15.41
2023-05-05T23:09:24.152Z,15.34
2023-05-05T23:11:50.741Z,15.36
2023-05-05T23:14:19.461Z,15.38
2023-05-05T23:16:46.361Z,15.34
2023-05-05T23:19:13.696Z,15.25
2023-05-05T23:21:51.984Z,15.17
2023-05-05T23:24:20.538Z,15.29
2023-05-05T23:26:46.975Z,15.24
2023-05-05T23:29:13.390Z,15.07
2023-05-05T23:31:39.908Z,15.21
2023-05-05T23:34:06.579Z,15.11
2023-05-05T23:36:33.239Z,15.13
2023-05-05T23:38:59.766Z,15.18
2023-05-05T23:41:26.491Z,15.11
2023-05-05T23:43:52.996Z,15.06
2023-05-05T23:46:19.550Z,15.09
2023-05-05T23:48:46.017Z,15.04
2023-05-05T23:51:12.462Z,15.01
2023-05-05T23:53:39.179Z,15.00
2023-05-05T23:56:06.064Z,14.92
2023-05-05T23:58:32.696Z,14.85
